createdAt,value
2022-12-10T00:01:32.400Z,-0.70
2022-12-10T00:03:56.448Z,-0.60
2022-12-10T00:06:23.887Z,-0.60
2022-12-10T00:08:47.940Z,-0.60
2022-12-10T00:11:14.590Z,-0.60
2022-12-10T00:13:39.850Z,-0.50
2022-12-10T00:16:04.138Z,-0.60
2022-12-10T00:18:27.834Z,-0.50
2022-12-10T00:20:51.331Z,-0.60
2022-12-10T00:23:21.598Z,-0.60
2022-12-10T00:25:46.810Z,-0.50
2022-12-10T00:28:10.373Z,-0.60
2022-12-10T00:30:36.018Z,-0.50
2022-12-10T00:32:59.531Z,-0.50
2022-12-10T00:35:23.424Z,-0.50
2022-12-10T00:37:47.029Z,-0.50
2022-12-10T00:40:13.608Z,-0.50
2022-12-10T00:42:37.220Z,-0.50
2022-12-10T00:45:00.843Z,-0.50
2022-12-10T00:47:24.420Z,-0.50
2022-12-10T00:49:48.002Z,-0.40
2022-12-10T00:52:11.669Z,-0.40
2022-12-10T00:54:35.237Z,-0.40
2022-12-10T00:57:00.139Z,-0.40
2022-12-10T00:59:23.745Z,-0.50
2022-12-10T01:01:47.302Z,-0.50
2022-12-10T01:04:15.519Z,-0.40
2022-12-10T01:06:45.352Z,-0.40
2022-12-10T01:09:11.988Z,-0.40
2022-12-10T01:11:39.247Z,-0.40
2022-12-10T01:14:04.263Z,-0.40
2022-12-10T01:16:29.032Z,-0.40
2022-12-10T01:18:55.059Z,-0.40
2022-12-10T01:21:21.058Z,-0.40
2022-12-10T01:23:46.922Z,-0.50
2022-12-10T01:26:15.039Z,-0.50
2022-12-10T01:28:40.946Z,-0.50
2022-12-10T01:31:08.873Z,-0.50
2022-12-10T01:33:33.200Z,-0.60
2022-12-10T01:35:56.797Z,-0.60
2022-12-10T01:38:20.414Z,-0.60
2022-12-10T01:40:43.944Z,-0.50
2022-12-10T01:43:11.873Z,-0.60
2022-12-10T01:45:35.407Z,-0.50
2022-12-10T01:48:04.856Z,-0.60
2022-12-10T01:50:31.356Z,-0.50
2022-12-10T01:52:54.885Z,-0.60
2022-12-10T01:55:41.910Z,-0.60
2022-12-10T01:58:05.630Z,-0.70
2022-12-10T02:00:29.134Z,-0.60
2022-12-10T02:03:05.099Z,-0.70
2022-12-10T02:05:39.021Z,-0.60
2022-12-10T02:08:12.528Z,-0.70
2022-12-10T02:10:53.058Z,-0.60
2022-12-10T02:13:23.105Z,-0.60
2022-12-10T02:15:53.101Z,-0.70
2022-12-10T02:18:24.040Z,-0.70
2022-12-10T02:20:52.172Z,-0.80
2022-12-10T02:23:22.350Z,-0.80
2022-12-10T02:25:51.874Z,-0.80
2022-12-10T02:28:25.624Z,-0.80
2022-12-10T02:30:52.786Z,-0.80
2022-12-10T02:33:18.928Z,-0.90
2022-12-10T02:35:44.422Z,-0.90
2022-12-10T02:38:15.670Z,-0.90
2022-12-10T02:40:46.425Z,-0.90
2022-12-10T02:43:12.454Z,-0.90
2022-12-10T02:45:37.457Z,-0.90
2022-12-10T02:48:06.675Z,-1.00
2022-12-10T02:50:36.308Z,-1.00
2022-12-10T02:53:01.032Z,-1.00
2022-12-10T02:55:24.786Z,-1.10
2022-12-10T02:58:07.655Z,-1.10
2022-12-10T03:00:39.023Z,-1.10
2022-12-10T03:03:28.315Z,-1.10
2022-12-10T03:06:01.252Z,-1.10
2022-12-10T03:08:31.213Z,-1.10
2022-12-10T03:11:02.013Z,-1.10
2022-12-10T03:13:32.104Z,-1.00
2022-12-10T03:15:57.328Z,-1.00
2022-12-10T03:18:26.228Z,-1.00
2022-12-10T03:20:53.006Z,-1.00
2022-12-10T03:23:19.538Z,-1.00
2022-12-10T03:25:43.623Z,-0.90
2022-12-10T03:28:09.362Z,-1.00
2022-12-10T03:30:35.226Z,-0.90
2022-12-10T03:32:58.998Z,-0.90
2022-12-10T03:35:26.101Z,-0.90
2022-12-10T03:37:50.597Z,-0.90
2022-12-10T03:40:14.792Z,-0.80
2022-12-10T03:42:38.863Z,-0.80
2022-12-10T03:45:02.564Z,-0.80
2022-12-10T03:47:26.841Z,-0.70
2022-12-10T03:49:50.413Z,-0.70
2022-12-10T03:52:15.530Z,-0.70
2022-12-10T03:54:39.334Z,-0.70
2022-12-10T03:57:02.959Z,-0.70
2022-12-10T03:59:26.497Z,-0.60
2022-12-10T04:01:50.226Z,-0.60
2022-12-10T04:04:14.198Z,-0.60
2022-12-10T04:06:40.708Z,-0.50
2022-12-10T04:09:05.744Z,-0.60
2022-12-10T04:11:29.461Z,-0.50
2022-12-10T04:14:11.278Z,-0.50
2022-12-10T04:16:36.340Z,-0.50
2022-12-10T04:19:05.075Z,-0.50
2022-12-10T04:21:47.585Z,-0.50
2022-12-10T04:24:31.062Z,-0.50
2022-12-10T04:26:54.855Z,-0.40
2022-12-10T04:29:18.626Z,-0.40
2022-12-10T04:31:42.222Z,-0.40
2022-12-10T04:34:05.795Z,-0.40
2022-12-10T04:36:29.407Z,-0.30
2022-12-10T04:38:52.983Z,-0.30
2022-12-10T04:41:17.945Z,-0.30
2022-12-10T04:43:41.446Z,-0.30
2022-12-10T04:46:05.296Z,-0.30
2022-12-10T04:48:28.890Z,-0.30
2022-12-10T04:50:52.495Z,-0.30
2022-12-10T04:53:16.186Z,-0.30
2022-12-10T04:55:39.750Z,-0.30
2022-12-10T04:58:04.771Z,-0.30
2022-12-10T05:00:28.360Z,-0.20
2022-12-10T05:02:51.946Z,-0.20
2022-12-10T05:05:15.585Z,-0.30
2022-12-10T05:07:39.099Z,-0.30
2022-12-10T05:10:02.712Z,-0.30
2022-12-10T05:12:26.246Z,-0.20
2022-12-10T05:14:51.243Z,-0.30
2022-12-10T05:17:14.729Z,-0.30
2022-12-10T05:19:38.438Z,-0.30
2022-12-10T05:22:19.113Z,-0.30
2022-12-10T05:24:42.758Z,-0.20
2022-12-10T05:27:06.684Z,-0.20
2022-12-10T05:29:30.530Z,-0.30
2022-12-10T05:31:55.452Z,-0.10
2022-12-10T05:34:19.000Z,-0.20
2022-12-10T05:36:42.831Z,-0.20
2022-12-10T05:39:06.592Z,-0.20
2022-12-10T05:41:32.810Z,-0.30
2022-12-10T05:43:57.762Z,-0.20
2022-12-10T05:46:27.654Z,-0.30
2022-12-10T05:48:53.147Z,-0.20
2022-12-10T05:51:19.884Z,-0.30
2022-12-10T05:53:44.758Z,-0.20
2022-12-10T05:56:11.358Z,-0.20
2022-12-10T05:58:35.614Z,-0.20
2022-12-10T06:00:59.604Z,-0.30
2022-12-10T06:03:23.206Z,-0.30
2022-12-10T06:05:48.141Z,-0.30
2022-12-10T06:08:11.866Z,-0.20
2022-12-10T06:10:37.146Z,-0.20
2022-12-10T06:13:00.713Z,-0.20
2022-12-10T06:15:24.417Z,-0.20
2022-12-10T06:17:48.001Z,-0.30
2022-12-10T06:20:13.146Z,-0.20
2022-12-10T06:22:38.285Z,-0.20
2022-12-10T06:25:01.775Z,-0.20
2022-12-10T06:27:25.333Z,-0.20
2022-12-10T06:29:48.845Z,-0.20
2022-12-10T06:32:12.445Z,-0.30
2022-12-10T06:34:41.304Z,-0.30
2022-12-10T06:37:06.401Z,-0.30
2022-12-10T06:39:31.298Z,-0.40
2022-12-10T06:41:58.847Z,-0.30
2022-12-10T06:44:22.781Z,-0.30
2022-12-10T06:46:46.424Z,-0.40
2022-12-10T06:49:10.268Z,-0.40
2022-12-10T06:51:33.952Z,-0.40
2022-12-10T06:53:57.607Z,-0.50
2022-12-10T06:56:22.658Z,-0.50
2022-12-10T06:58:46.479Z,-0.50
2022-12-10T07:01:14.314Z,-0.50
2022-12-10T07:03:38.872Z,-0.50
2022-12-10T07:06:02.995Z,-0.50
2022-12-10T07:08:26.547Z,-0.50
2022-12-10T07:10:50.187Z,-0.50
2022-12-10T07:13:15.352Z,-0.50
2022-12-10T07:15:39.327Z,-0.50
2022-12-10T07:18:02.826Z,-0.50
2022-12-10T07:20:26.410Z,-0.60
2022-12-10T07:22:49.966Z,-0.60
2022-12-10T07:25:13.565Z,-0.60
2022-12-10T07:27:37.138Z,-0.50
2022-12-10T07:30:02.112Z,-0.60
2022-12-10T07:32:25.615Z,-0.60
2022-12-10T07:34:49.230Z,-0.60
2022-12-10T07:37:12.770Z,-0.60
2022-12-10T07:39:36.435Z,-0.70
2022-12-10T07:41:59.925Z,-0.60
2022-12-10T07:44:28.683Z,-0.60
2022-12-10T07:46:55.620Z,-0.60
2022-12-10T07:49:19.929Z,-0.70
2022-12-10T07:51:47.087Z,-0.60
2022-12-10T07:54:10.648Z,-0.60
2022-12-10T07:56:34.150Z,-0.60
2022-12-10T07:58:57.858Z,-0.50
2022-12-10T08:01:24.538Z,-0.50
2022-12-10T08:03:49.568Z,-0.40
2022-12-10T08:06:15.665Z,-0.40
2022-12-10T08:08:40.648Z,-0.40
2022-12-10T08:11:05.740Z,-0.40
2022-12-10T08:13:30.124Z,-0.40
2022-12-10T08:15:53.700Z,-0.50
2022-12-10T08:18:17.349Z,-0.50
2022-12-10T08:20:42.234Z,-0.50
2022-12-10T08:23:05.837Z,-0.50
2022-12-10T08:25:29.383Z,-0.40
2022-12-10T08:27:52.925Z,-0.40
2022-12-10T08:30:16.484Z,-0.40
2022-12-10T08:32:40.070Z,-0.40
2022-12-10T08:35:03.679Z,-0.40
2022-12-10T08:37:28.643Z,-0.30
2022-12-10T08:39:52.236Z,-0.30
2022-12-10T08:42:15.931Z,-0.30
2022-12-10T08:44:39.761Z,-0.30
2022-12-10T08:47:03.511Z,-0.30
2022-12-10T08:49:27.057Z,-0.30
2022-12-10T08:51:50.596Z,-0.30
2022-12-10T08:54:15.570Z,-0.30
2022-12-10T08:56:40.309Z,-0.30
2022-12-10T08:59:04.578Z,-0.20
2022-12-10T09:01:28.252Z,-0.20
2022-12-10T09:03:52.089Z,-0.30
2022-12-10T09:06:18.936Z,-0.30
2022-12-10T09:08:42.533Z,-0.20
2022-12-10T09:11:13.121Z,-0.10
2022-12-10T09:13:38.720Z,-0.10
2022-12-10T09:16:02.278Z,-0.10
2022-12-10T09:18:26.030Z,0.00
2022-12-10T09:20:49.557Z,0.00
2022-12-10T09:23:13.246Z,0.00
2022-12-10T09:25:36.754Z,0.10
2022-12-10T09:28:01.749Z,0.10
2022-12-10T09:30:25.287Z,0.10
2022-12-10T09:32:48.954Z,0.10
2022-12-10T09:35:12.630Z,0.20
2022-12-10T09:37:36.206Z,0.20
2022-12-10T09:39:59.716Z,0.30
2022-12-10T09:42:39.024Z,0.40
2022-12-10T09:45:18.576Z,0.40
2022-12-10T09:47:54.110Z,0.30
2022-12-10T09:50:27.286Z,0.30
2022-12-10T09:52:52.085Z,0.20
2022-12-10T09:55:19.592Z,0.20
2022-12-10T09:57:46.638Z,0.20
2022-12-10T10:00:24.580Z,0.20
2022-12-10T10:02:48.549Z,0.30
2022-12-10T10:05:22.570Z,0.30
2022-12-10T10:07:51.842Z,0.30
2022-12-10T10:10:26.248Z,0.30
2022-12-10T10:12:50.304Z,0.40
2022-12-10T10:15:19.284Z,0.40
2022-12-10T10:17:46.775Z,0.40
2022-12-10T10:20:11.331Z,0.40
2022-12-10T10:22:35.058Z,0.40
2022-12-10T10:25:03.276Z,0.50
2022-12-10T10:27:30.460Z,0.50
2022-12-10T10:29:58.199Z,0.50
2022-12-10T10:32:26.725Z,0.50
2022-12-10T10:34:56.609Z,0.60
2022-12-10T10:37:23.873Z,0.60
2022-12-10T10:39:51.046Z,0.70
2022-12-10T10:42:30.751Z,0.60
2022-12-10T10:44:54.480Z,0.70
2022-12-10T10:47:34.785Z,0.70
2022-12-10T10:49:59.581Z,0.70
2022-12-10T10:52:23.283Z,0.70
2022-12-10T10:54:48.936Z,0.70
2022-12-10T10:57:19.892Z,0.70
2022-12-10T10:59:44.186Z,0.80
2022-12-10T11:02:21.542Z,0.80
2022-12-10T11:04:51.561Z,0.80
2022-12-10T11:07:34.819Z,0.80
2022-12-10T11:09:58.696Z,0.90
2022-12-10T11:12:37.993Z,0.90
2022-12-10T11:15:01.659Z,0.90
2022-12-10T11:17:27.244Z,1.00
2022-12-10T11:20:02.123Z,1.00
2022-12-10T11:22:28.610Z,1.00
2022-12-10T11:24:52.989Z,1.00
2022-12-10T11:27:27.452Z,1.10
2022-12-10T11:30:03.179Z,1.10
2022-12-10T11:32:47.608Z,1.10
2022-12-10T11:35:21.851Z,1.10
2022-12-10T11:37:57.479Z,1.00
2022-12-10T11:40:35.577Z,1.00
2022-12-10T11:43:26.674Z,1.00
2022-12-10T11:46:09.553Z,1.00
2022-12-10T11:48:54.325Z,0.90
2022-12-10T11:51:31.885Z,0.90
2022-12-10T11:54:09.198Z,1.00
2022-12-10T11:56:39.558Z,1.00
2022-12-10T11:59:18.380Z,1.00
2022-12-10T12:02:05.877Z,1.00
2022-12-10T12:04:44.492Z,1.00
2022-12-10T12:07:33.370Z,1.00
2022-12-10T12:10:30.095Z,1.00
2022-12-10T12:13:01.500Z,1.10
2022-12-10T12:15:32.479Z,1.00
2022-12-10T12:18:00.940Z,1.00
2022-12-10T12:20:31.680Z,0.90
2022-12-10T12:23:01.631Z,0.90
2022-12-10T12:25:29.438Z,0.80
2022-12-10T12:27:58.514Z,0.80
2022-12-10T12:30:23.953Z,0.90
2022-12-10T12:32:58.265Z,0.90
2022-12-10T12:35:31.709Z,0.90
2022-12-10T12:38:01.564Z,0.90
2022-12-10T12:40:32.220Z,0.90
2022-12-10T12:43:01.352Z,0.90
2022-12-10T12:45:41.425Z,0.90
2022-12-10T12:48:20.964Z,0.90
2022-12-10T12:50:49.195Z,0.90
2022-12-10T12:53:16.578Z,0.90
2022-12-10T12:55:51.264Z,0.90
2022-12-10T12:58:25.451Z,0.90
2022-12-10T13:00:55.964Z,0.80
2022-12-10T13:03:39.239Z,0.90
2022-12-10T13:06:20.399Z,1.00
2022-12-10T13:08:48.766Z,0.90
2022-12-10T13:11:34.956Z,0.90
2022-12-10T13:14:20.775Z,0.90
2022-12-10T13:17:24.955Z,0.80
2022-12-10T13:19:48.561Z,0.80
2022-12-10T13:22:14.212Z,0.90
2022-12-10T13:25:12.133Z,0.90
2022-12-10T13:27:36.805Z,0.90
2022-12-10T13:30:02.679Z,0.90
2022-12-10T13:32:45.078Z,1.00
2022-12-10T13:35:31.554Z,1.00
2022-12-10T13:38:07.581Z,1.00
2022-12-10T13:41:01.527Z,1.00
2022-12-10T13:43:48.643Z,1.00
2022-12-10T13:46:28.868Z,1.00
2022-12-10T13:48:55.294Z,1.00
2022-12-10T13:51:51.703Z,1.00
2022-12-10T13:54:48.531Z,0.90
2022-12-10T13:57:29.110Z,0.80
2022-12-10T14:00:07.866Z,0.80
2022-12-10T14:03:25.653Z,0.80
2022-12-10T14:06:14.095Z,0.80
2022-12-10T14:08:41.906Z,0.70
2022-12-10T14:11:08.949Z,0.80
2022-12-10T14:13:43.998Z,0.70
2022-12-10T14:16:13.187Z,0.70
2022-12-10T14:18:37.219Z,0.60
2022-12-10T14:21:05.727Z,0.60
2022-12-10T14:23:35.271Z,0.60
2022-12-10T14:25:58.872Z,0.70
2022-12-10T14:28:22.394Z,0.60
2022-12-10T14:30:49.897Z,0.60
2022-12-10T14:33:18.896Z,0.60
2022-12-10T14:35:43.533Z,0.50
2022-12-10T14:38:07.177Z,0.50
2022-12-10T14:40:38.113Z,0.50
2022-12-10T14:43:07.487Z,0.60
2022-12-10T14:45:42.396Z,0.60
2022-12-10T14:48:10.069Z,0.50
2022-12-10T14:50:33.714Z,0.50
2022-12-10T14:52:57.333Z,0.50
2022-12-10T14:55:25.141Z,0.50
2022-12-10T14:57:57.474Z,0.50
2022-12-10T15:00:24.645Z,0.50
2022-12-10T15:02:52.540Z,0.50
2022-12-10T15:05:22.306Z,0.50
2022-12-10T15:07:55.338Z,0.50
2022-12-10T15:10:25.516Z,0.60
2022-12-10T15:12:52.101Z,0.50
2022-12-10T15:15:24.373Z,0.50
2022-12-10T15:18:01.020Z,0.50
2022-12-10T15:20:29.102Z,0.50
2022-12-10T15:22:53.246Z,0.50
2022-12-10T15:25:30.574Z,0.50
2022-12-10T15:28:01.456Z,0.40
2022-12-10T15:30:34.420Z,0.30
2022-12-10T15:32:58.097Z,0.40
2022-12-10T15:35:21.798Z,0.30
2022-12-10T15:37:52.271Z,0.30
2022-12-10T15:40:27.246Z,0.30
2022-12-10T15:42:51.215Z,0.30
2022-12-10T15:45:28.065Z,0.30
2022-12-10T15:47:52.349Z,0.30
2022-12-10T15:50:16.384Z,0.30
2022-12-10T15:52:41.000Z,0.20
2022-12-10T15:55:07.316Z,0.30
2022-12-10T15:57:33.922Z,0.30
2022-12-10T16:00:00.036Z,0.30
2022-12-10T16:02:37.381Z,0.20
2022-12-10T16:05:01.053Z,0.20
2022-12-10T16:07:24.631Z,0.20
2022-12-10T16:09:48.901Z,0.20
2022-12-10T16:12:15.579Z,0.20
2022-12-10T16:14:39.295Z,0.20
2022-12-10T16:17:02.872Z,0.20
2022-12-10T16:19:26.593Z,0.20
2022-12-10T16:21:50.242Z,0.20
2022-12-10T16:24:14.189Z,0.20
2022-12-10T16:26:39.974Z,0.10
2022-12-10T16:29:05.195Z,0.20
2022-12-10T16:31:28.887Z,0.10
2022-12-10T16:33:53.779Z,0.10
2022-12-10T16:36:17.941Z,0.10
2022-12-10T16:38:42.586Z,0.10
2022-12-10T16:41:12.578Z,0.10
2022-12-10T16:43:36.216Z,0.20
2022-12-10T16:46:01.622Z,0.10
2022-12-10T16:48:25.861Z,0.10
2022-12-10T16:50:52.457Z,0.10
2022-12-10T16:53:20.618Z,0.10
2022-12-10T16:55:44.325Z,0.10
2022-12-10T16:58:11.848Z,0.20
2022-12-10T17:00:35.399Z,0.20
2022-12-10T17:03:07.897Z,0.20
2022-12-10T17:05:36.389Z,0.20
2022-12-10T17:08:00.242Z,0.20
2022-12-10T17:10:44.220Z,0.20
2022-12-10T17:13:08.016Z,0.20
2022-12-10T17:15:31.673Z,0.20
2022-12-10T17:17:55.329Z,0.20
2022-12-10T17:20:21.979Z,0.30
2022-12-10T17:22:45.590Z,0.30
2022-12-10T17:25:09.591Z,0.30
2022-12-10T17:27:38.887Z,0.30
2022-12-10T17:30:03.830Z,0.30
2022-12-10T17:32:27.513Z,0.30
2022-12-10T17:34:51.244Z,0.30
2022-12-10T17:37:19.680Z,0.30
2022-12-10T17:39:43.462Z,0.20
2022-12-10T17:42:08.446Z,0.20
2022-12-10T17:44:32.206Z,0.30
2022-12-10T17:46:55.816Z,0.30
2022-12-10T17:49:19.591Z,0.20
2022-12-10T17:51:43.245Z,0.20
2022-12-10T17:54:08.311Z,0.10
2022-12-10T17:56:32.295Z,0.00
2022-12-10T17:58:56.341Z,0.00
2022-12-10T18:01:21.567Z,0.00
2022-12-10T18:03:45.309Z,0.00
2022-12-10T18:06:16.969Z,-0.10
2022-12-10T18:08:40.643Z,-0.10
2022-12-10T18:11:05.786Z,-0.10
2022-12-10T18:13:29.496Z,-0.10
2022-12-10T18:15:54.084Z,0.00
2022-12-10T18:18:17.911Z,0.00
2022-12-10T18:20:43.169Z,-0.10
2022-12-10T18:23:10.244Z,-0.10
2022-12-10T18:25:34.149Z,-0.10
2022-12-10T18:28:02.702Z,0.00
2022-12-10T18:30:27.075Z,0.00
2022-12-10T18:32:51.875Z,0.00
2022-12-10T18:35:15.597Z,-0.10
2022-12-10T18:37:39.856Z,-0.10
2022-12-10T18:40:03.727Z,-0.10
2022-12-10T18:42:27.401Z,-0.10
2022-12-10T18:44:52.428Z,-0.10
2022-12-10T18:47:16.167Z,0.00
2022-12-10T18:49:40.306Z,-0.10
2022-12-10T18:52:03.962Z,-0.10
2022-12-10T18:54:27.597Z,0.00
2022-12-10T18:57:24.509Z,0.00
2022-12-10T18:59:34.938Z,0.00
2022-12-10T19:01:59.980Z,-0.10
2022-12-10T19:04:23.712Z,-0.20
2022-12-10T19:06:47.321Z,-0.20
2022-12-10T19:09:19.075Z,-0.30
2022-12-10T19:11:43.705Z,-0.20
2022-12-10T19:14:07.328Z,-0.20
2022-12-10T19:16:31.089Z,-0.30
2022-12-10T19:19:01.852Z,-0.30
2022-12-10T19:21:26.771Z,-0.30
2022-12-10T19:23:50.408Z,-0.30
2022-12-10T19:26:28.387Z,-0.20
2022-12-10T19:28:52.187Z,-0.20
2022-12-10T19:31:15.885Z,-0.30
2022-12-10T19:33:39.501Z,-0.30
2022-12-10T19:36:04.800Z,-0.30
2022-12-10T19:38:28.527Z,-0.30
2022-12-10T19:40:52.221Z,-0.30
2022-12-10T19:43:15.931Z,-0.30
2022-12-10T19:45:39.597Z,-0.30
2022-12-10T19:48:03.208Z,-0.30
2022-12-10T19:50:30.566Z,-0.30
2022-12-10T19:52:55.881Z,-0.30
2022-12-10T19:55:21.471Z,-0.40
2022-12-10T19:57:45.540Z,-0.30
2022-12-10T20:00:17.269Z,-0.40
2022-12-10T20:02:41.051Z,-0.30
2022-12-10T20:05:05.371Z,-0.40
2022-12-10T20:07:29.183Z,-0.30
2022-12-10T20:09:54.224Z,-0.40
2022-12-10T20:12:17.890Z,-0.40
2022-12-10T20:14:41.474Z,-0.40
2022-12-10T20:17:05.364Z,-0.30
2022-12-10T20:19:28.987Z,-0.40
2022-12-10T20:21:53.107Z,-0.40
2022-12-10T20:24:16.925Z,-0.50
2022-12-10T20:26:45.162Z,-0.60
2022-12-10T20:29:18.240Z,-0.60
2022-12-10T20:31:42.513Z,-0.70
2022-12-10T20:34:09.596Z,-0.70
2022-12-10T20:36:33.532Z,-0.70
2022-12-10T20:38:57.316Z,-0.70
2022-12-10T20:41:21.967Z,-0.60
2022-12-10T20:43:47.608Z,-0.70
2022-12-10T20:46:17.514Z,-0.60
2022-12-10T20:48:41.172Z,-0.60
2022-12-10T20:51:04.956Z,-0.60
2022-12-10T20:53:28.576Z,-0.50
2022-12-10T20:55:52.408Z,-0.50
2022-12-10T20:58:16.097Z,-0.60
2022-12-10T21:00:41.110Z,-0.50
2022-12-10T21:03:04.839Z,-0.60
2022-12-10T21:05:28.537Z,-0.60
2022-12-10T21:07:52.242Z,-0.60
2022-12-10T21:10:32.007Z,-0.60
2022-12-10T21:12:55.645Z,-0.70
2022-12-10T21:15:23.552Z,-0.60
2022-12-10T21:17:49.217Z,-0.60
2022-12-10T21:20:13.186Z,-0.60
2022-12-10T21:22:37.579Z,-0.60
2022-12-10T21:25:01.244Z,-0.60
2022-12-10T21:27:24.956Z,-0.50
2022-12-10T21:29:48.570Z,-0.60
2022-12-10T21:32:12.194Z,-0.50
2022-12-10T21:34:37.160Z,-0.40
2022-12-10T21:37:00.807Z,-0.60
2022-12-10T21:39:25.482Z,-0.50
2022-12-10T21:42:06.797Z,-0.50
2022-12-10T21:44:32.913Z,-0.50
2022-12-10T21:46:56.611Z,-0.50
2022-12-10T21:49:20.336Z,-0.50
2022-12-10T21:51:45.353Z,-0.50
2022-12-10T21:54:10.314Z,-0.60
2022-12-10T21:56:33.947Z,-0.60
2022-12-10T21:58:58.035Z,-0.50
2022-12-10T22:01:21.854Z,-0.60
2022-12-10T22:03:45.552Z,-0.60
2022-12-10T22:06:09.916Z,-0.60
2022-12-10T22:08:35.065Z,-0.60
2022-12-10T22:10:58.723Z,-0.60
2022-12-10T22:13:22.621Z,-0.60
2022-12-10T22:15:46.816Z,-0.50
2022-12-10T22:18:11.440Z,-0.50
2022-12-10T22:20:35.228Z,-0.60
2022-12-10T22:22:58.928Z,-0.50
2022-12-10T22:25:24.025Z,-0.50
2022-12-10T22:27:47.747Z,-0.50
2022-12-10T22:30:13.951Z,-0.50
2022-12-10T22:32:37.655Z,-0.50
2022-12-10T22:35:01.379Z,-0.50
2022-12-10T22:37:25.225Z,-0.50
2022-12-10T22:39:50.306Z,-0.50
2022-12-10T22:42:15.705Z,-0.50
2022-12-10T22:44:39.575Z,-0.50
2022-12-10T22:47:03.358Z,-0.50
2022-12-10T22:49:27.053Z,-0.50
2022-12-10T22:51:50.768Z,-0.50
2022-12-10T22:54:14.425Z,-0.50
2022-12-10T22:56:38.815Z,-0.60
2022-12-10T22:59:05.363Z,-0.60
2022-12-10T23:01:29.381Z,-0.60
2022-12-10T23:03:55.070Z,-0.70
2022-12-10T23:06:18.997Z,-0.70
2022-12-10T23:08:42.798Z,-0.70
2022-12-10T23:11:06.890Z,-0.60
2022-12-10T23:13:34.802Z,-0.60
2022-12-10T23:16:08.540Z,-0.60
2022-12-10T23:18:32.608Z,-0.60
2022-12-10T23:20:56.233Z,-0.60
2022-12-10T23:23:21.254Z,-0.50
2022-12-10T23:25:46.470Z,-0.50
2022-12-10T23:28:10.279Z,-0.50
2022-12-10T23:30:34.049Z,-0.50
2022-12-10T23:33:02.494Z,-0.50
2022-12-10T23:35:28.798Z,-0.50
2022-12-10T23:37:52.455Z,-0.50
2022-12-10T23:40:16.333Z,-0.50
2022-12-10T23:42:40.084Z,-0.50
2022-12-10T23:45:04.319Z,-0.50
2022-12-10T23:47:28.529Z,-0.50
2022-12-10T23:49:53.800Z,-0.50
2022-12-10T23:52:17.896Z,-0.50
2022-12-10T23:54:41.496Z,-0.40
2022-12-10T23:57:05.352Z,-0.40
2022-12-10T23:59:29.043Z,-0.50
